createdAt,value
2023-01-21T00:02:40.001Z,-0.70
2023-01-21T00:07:41.722Z,-0.70
2023-01-21T00:12:43.433Z,-0.70
2023-01-21T00:17:45.173Z,-0.70
2023-01-21T00:22:47.177Z,-0.70
2023-01-21T00:27:48.922Z,-0.70
2023-01-21T00:32:51.814Z,-0.60
2023-01-21T00:37:53.727Z,-0.70
2023-01-21T00:42:55.480Z,-0.70
2023-01-21T00:47:57.257Z,-0.80
2023-01-21T00:52:58.970Z,-0.80
2023-01-21T00:58:00.678Z,-0.80
2023-01-21T01:03:02.586Z,-0.80
2023-01-21T01:08:04.370Z,-0.80
2023-01-21T01:13:06.079Z,-0.80
2023-01-21T01:18:07.797Z,-0.70
2023-01-21T01:23:09.532Z,-0.80
2023-01-21T01:28:11.243Z,-0.70
2023-01-21T01:33:13.024Z,-0.80
2023-01-21T01:38:16.720Z,-0.70
2023-01-21T01:43:24.677Z,-0.70
2023-01-21T01:48:31.205Z,-0.70
2023-01-21T01:53:35.494Z,-0.70
2023-01-21T01:58:38.566Z,-0.70
2023-01-21T02:03:45.729Z,-0.70
2023-01-21T02:08:48.170Z,-0.60
2023-01-21T02:13:54.337Z,-0.70
2023-01-21T02:19:39.186Z,-0.70
2023-01-21T02:25:05.797Z,-0.70
2023-01-21T02:30:18.397Z,-0.70
2023-01-21T02:35:28.337Z,-0.70
2023-01-21T02:41:00.354Z,-0.70
2023-01-21T02:46:12.974Z,-0.70
2023-01-21T02:51:14.816Z,-0.70
2023-01-21T02:56:22.225Z,-0.70
2023-01-21T03:01:45.890Z,-0.70
2023-01-21T03:06:58.730Z,-0.70
2023-01-21T03:12:17.170Z,-0.60
2023-01-21T03:17:57.766Z,-0.60
2023-01-21T03:23:08.353Z,-0.70
2023-01-21T03:28:13.506Z,-0.70
2023-01-21T03:33:18.076Z,-0.60
2023-01-21T03:38:29.609Z,-0.60
2023-01-21T03:43:31.885Z,-0.70
2023-01-21T03:48:57.284Z,-0.70
2023-01-21T03:53:59.707Z,-0.70
2023-01-21T03:59:01.460Z,-0.70
2023-01-21T04:04:03.279Z,-0.70
2023-01-21T04:09:05.726Z,-0.70
2023-01-21T04:14:07.515Z,-0.70
2023-01-21T04:19:09.466Z,-0.70
2023-01-21T04:24:11.243Z,-0.70
2023-01-21T04:29:13.182Z,-0.70
2023-01-21T04:34:16.672Z,-0.80
2023-01-21T04:39:18.458Z,-0.80
2023-01-21T04:44:20.273Z,-0.70
2023-01-21T04:49:22.093Z,-0.70
2023-01-21T04:54:23.818Z,-0.70
2023-01-21T04:59:25.584Z,-0.70
2023-01-21T05:04:27.409Z,-0.70
2023-01-21T05:09:29.226Z,-0.70
2023-01-21T05:14:30.986Z,-0.80
2023-01-21T05:19:32.694Z,-0.80
2023-01-21T05:24:34.463Z,-0.80
2023-01-21T05:29:36.255Z,-0.80
2023-01-21T05:34:37.958Z,-0.80
2023-01-21T05:39:39.698Z,-0.80
2023-01-21T05:44:41.431Z,-0.80
2023-01-21T05:49:43.227Z,-0.90
2023-01-21T05:55:00.648Z,-0.80
2023-01-21T06:00:04.550Z,-0.80
2023-01-21T06:05:07.159Z,-0.80
2023-01-21T06:10:09.545Z,-0.80
2023-01-21T06:15:11.644Z,-0.80
2023-01-21T06:20:13.496Z,-0.90
2023-01-21T06:25:15.255Z,-0.90
2023-01-21T06:30:17.425Z,-0.90
2023-01-21T06:35:19.428Z,-0.90
2023-01-21T06:40:21.188Z,-1.00
2023-01-21T06:45:22.933Z,-1.00
2023-01-21T06:50:24.788Z,-1.00
2023-01-21T06:55:26.513Z,-1.00
2023-01-21T07:00:28.281Z,-1.10
2023-01-21T07:05:30.142Z,-1.10
2023-01-21T07:10:31.941Z,-1.10
2023-01-21T07:15:33.740Z,-1.00
2023-01-21T07:20:35.636Z,-1.00
2023-01-21T07:25:38.247Z,-1.00
2023-01-21T07:30:40.008Z,-1.00
2023-01-21T07:35:41.767Z,-0.90
2023-01-21T07:40:43.650Z,-0.90
2023-01-21T07:45:45.924Z,-0.90
2023-01-21T07:50:47.796Z,-0.90
2023-01-21T07:55:49.553Z,-0.90
2023-01-21T08:00:51.322Z,-0.90
2023-01-21T08:05:53.108Z,-0.80
2023-01-21T08:10:55.369Z,-0.80
2023-01-21T08:15:57.619Z,-0.80
2023-01-21T08:21:00.130Z,-0.80
2023-01-21T08:26:03.355Z,-0.70
2023-01-21T08:31:10.367Z,-0.70
2023-01-21T08:36:12.254Z,-0.60
2023-01-21T08:41:14.032Z,-0.50
2023-01-21T08:46:15.767Z,-0.40
2023-01-21T08:51:17.686Z,-0.30
2023-01-21T08:56:19.653Z,-0.30
2023-01-21T09:01:21.471Z,-0.30
2023-01-21T09:06:24.592Z,-0.30
2023-01-21T09:11:29.112Z,-0.30
2023-01-21T09:16:31.827Z,-0.30
2023-01-21T09:21:37.836Z,-0.20
2023-01-21T09:26:43.965Z,-0.20
2023-01-21T09:31:45.791Z,-0.10
2023-01-21T09:36:47.603Z,-0.20
2023-01-21T09:41:54.256Z,-0.20
2023-01-21T09:47:11.045Z,0.00
2023-01-21T09:52:27.492Z,0.00
2023-01-21T09:57:39.294Z,0.00
2023-01-21T10:03:08.403Z,0.00
2023-01-21T10:08:46.124Z,0.00
2023-01-21T10:14:15.777Z,0.00
2023-01-21T10:19:28.329Z,0.10
2023-01-21T10:24:40.603Z,0.20
2023-01-21T10:29:42.834Z,0.10
2023-01-21T10:34:53.737Z,0.10
2023-01-21T10:40:11.997Z,0.00
2023-01-21T10:45:13.760Z,0.00
2023-01-21T10:50:54.492Z,0.20
2023-01-21T10:56:07.584Z,0.30
2023-01-21T11:01:29.238Z,0.20
2023-01-21T11:06:33.362Z,0.20
2023-01-21T11:11:37.321Z,0.10
2023-01-21T11:16:46.391Z,0.10
2023-01-21T11:22:17.303Z,0.10
2023-01-21T11:27:34.857Z,0.20
2023-01-21T11:32:36.629Z,0.20
2023-01-21T11:37:38.576Z,0.20
2023-01-21T11:42:55.026Z,0.30
2023-01-21T11:47:58.122Z,0.40
2023-01-21T11:53:12.956Z,0.40
2023-01-21T11:58:28.285Z,0.40
2023-01-21T12:03:45.689Z,0.50
2023-01-21T12:08:51.190Z,0.50
2023-01-21T12:14:30.670Z,0.40
2023-01-21T12:19:51.311Z,0.30
2023-01-21T12:25:38.325Z,0.30
2023-01-21T12:31:08.178Z,0.30
2023-01-21T12:36:29.859Z,0.20
2023-01-21T12:41:33.778Z,0.20
2023-01-21T12:46:41.447Z,0.20
2023-01-21T12:51:51.336Z,0.10
2023-01-21T12:57:20.453Z,0.20
2023-01-21T13:02:29.534Z,0.10
2023-01-21T13:07:56.541Z,0.10
2023-01-21T13:13:13.942Z,0.20
2023-01-21T13:18:21.351Z,0.10
2023-01-21T13:23:29.324Z,0.10
2023-01-21T13:28:39.374Z,0.10
2023-01-21T13:33:51.790Z,0.10
2023-01-21T13:38:59.379Z,0.10
2023-01-21T13:44:19.837Z,0.10
2023-01-21T13:49:36.833Z,0.00
2023-01-21T13:54:47.706Z,0.10
2023-01-21T13:59:53.830Z,0.10
2023-01-21T14:05:02.485Z,0.20
2023-01-21T14:10:25.437Z,0.20
2023-01-21T14:15:42.304Z,0.10
2023-01-21T14:21:12.169Z,0.10
2023-01-21T14:26:13.845Z,0.20
2023-01-21T14:31:23.480Z,0.10
2023-01-21T14:36:48.642Z,0.10
2023-01-21T14:41:54.497Z,0.10
2023-01-21T14:47:16.859Z,0.10
2023-01-21T14:52:27.231Z,0.10
2023-01-21T14:57:32.568Z,0.00
2023-01-21T15:02:41.352Z,0.00
2023-01-21T15:07:47.170Z,0.00
2023-01-21T15:12:55.055Z,-0.10
2023-01-21T15:17:57.854Z,-0.10
2023-01-21T15:23:20.021Z,-0.10
2023-01-21T15:28:25.027Z,-0.20
2023-01-21T15:33:27.937Z,-0.20
2023-01-21T15:38:29.849Z,-0.20
2023-01-21T15:43:37.509Z,-0.20
2023-01-21T15:49:00.546Z,-0.20
2023-01-21T15:54:12.988Z,-0.20
2023-01-21T15:59:51.506Z,-0.20
2023-01-21T16:05:18.321Z,-0.30
2023-01-21T16:10:43.838Z,-0.30
2023-01-21T16:16:00.714Z,-0.30
2023-01-21T16:21:03.851Z,-0.30
2023-01-21T16:26:05.798Z,-0.30
2023-01-21T16:31:07.627Z,-0.40
2023-01-21T16:36:14.047Z,-0.30
2023-01-21T16:41:20.533Z,-0.40
2023-01-21T16:46:34.318Z,-0.40
2023-01-21T16:51:40.380Z,-0.40
2023-01-21T16:56:47.620Z,-0.50
2023-01-21T17:01:52.057Z,-0.50
2023-01-21T17:06:54.212Z,-0.50
2023-01-21T17:12:00.433Z,-0.60
2023-01-21T17:17:06.825Z,-0.60
2023-01-21T17:22:21.689Z,-0.50
2023-01-21T17:27:24.690Z,-0.50
2023-01-21T17:32:38.004Z,-0.50
2023-01-21T17:37:54.655Z,-0.50
2023-01-21T17:42:58.169Z,-0.60
2023-01-21T17:48:09.498Z,-0.70
2023-01-21T17:53:41.192Z,-0.70
2023-01-21T17:58:50.826Z,-0.60
2023-01-21T18:03:52.568Z,-0.60
2023-01-21T18:08:56.435Z,-0.60
2023-01-21T18:13:59.455Z,-0.50
2023-01-21T18:19:01.285Z,-0.50
2023-01-21T18:24:03.160Z,-0.50
2023-01-21T18:29:05.224Z,-0.50
2023-01-21T18:34:07.407Z,-0.50
2023-01-21T18:39:18.467Z,-0.50
2023-01-21T18:44:20.251Z,-0.50
2023-01-21T18:49:22.967Z,-0.50
2023-01-21T18:54:24.839Z,-0.50
2023-01-21T18:59:27.641Z,-0.50
2023-01-21T19:04:29.519Z,-0.60
2023-01-21T19:09:35.747Z,-0.60
2023-01-21T19:14:37.495Z,-0.60
2023-01-21T19:19:39.990Z,-0.60
2023-01-21T19:24:42.065Z,-0.60
2023-01-21T19:29:43.859Z,-0.60
2023-01-21T19:34:45.601Z,-0.60
2023-01-21T19:39:47.348Z,-0.60
2023-01-21T19:44:49.087Z,-0.70
2023-01-21T19:49:50.901Z,-0.70
2023-01-21T19:54:54.919Z,-0.70
2023-01-21T19:59:59.540Z,-0.80
2023-01-21T20:05:01.300Z,-0.80
2023-01-21T20:10:16.444Z,-0.80
2023-01-21T20:15:21.865Z,-0.80
2023-01-21T20:20:25.941Z,-0.80
2023-01-21T20:25:36.598Z,-0.80
2023-01-21T20:30:38.353Z,-0.80
2023-01-21T20:35:40.342Z,-0.80
2023-01-21T20:40:42.187Z,-0.80
2023-01-21T20:45:47.459Z,-0.70
2023-01-21T20:50:49.319Z,-0.70
2023-01-21T20:55:52.688Z,-0.70
2023-01-21T21:00:54.601Z,-0.70
2023-01-21T21:05:56.366Z,-0.60
2023-01-21T21:10:58.105Z,-0.60
2023-01-21T21:15:59.840Z,-0.70
2023-01-21T21:21:01.669Z,-0.70
2023-01-21T21:26:03.421Z,-0.60
2023-01-21T21:31:05.326Z,-0.60
2023-01-21T21:36:21.225Z,-0.50
2023-01-21T21:41:43.687Z,-0.50
2023-01-21T21:47:04.254Z,-0.50
2023-01-21T21:52:06.247Z,-0.60
2023-01-21T21:57:07.998Z,-0.60
2023-01-21T22:02:11.649Z,-0.60
2023-01-21T22:07:13.383Z,-0.70
2023-01-21T22:12:15.477Z,-0.80
2023-01-21T22:17:17.224Z,-0.90
2023-01-21T22:22:18.989Z,-0.90
2023-01-21T22:27:20.742Z,-1.00
2023-01-21T22:32:22.558Z,-1.00
2023-01-21T22:37:24.308Z,-1.30
2023-01-21T22:42:26.075Z,-1.50
2023-01-21T22:47:31.968Z,-1.50
2023-01-21T22:52:33.699Z,-1.50
2023-01-21T22:57:35.410Z,-1.40
2023-01-21T23:02:37.171Z,-1.40
2023-01-21T23:07:38.989Z,-1.50
2023-01-21T23:12:40.781Z,-1.60
2023-01-21T23:17:42.695Z,-1.80
2023-01-21T23:22:44.946Z,-1.80
2023-01-21T23:27:46.846Z,-2.00
2023-01-21T23:32:48.630Z,-2.00
2023-01-21T23:37:52.694Z,-2.00
2023-01-21T23:42:54.587Z,-1.90
2023-01-21T23:47:56.356Z,-1.80
2023-01-21T23:52:58.226Z,-1.80
2023-01-21T23:57:59.974Z,-1.90
